ADDS METAR Data INFO
IDs: Format: Raw Decoded Include TAF

Data at: 2254 UTC 22 Jun 2018

KL18 222235Z AUTO 21008KT 10SM CLR 27/15 A2983 RMK AO2
KL18 222215Z AUTO 22007KT 10SM CLR 27/15 A2984 RMK AO2
KL18 222155Z AUTO 22008KT 10SM CLR 28/15 A2984 RMK AO2
KL18 222135Z AUTO 21007KT 10SM CLR 28/15 A2984 RMK AO2
KL18 222115Z AUTO 21008KT 10SM CLR 28/15 A2985 RMK AO2
KL18 222055Z AUTO 22005KT 10SM CLR 28/16 A2985 RMK AO2
KL18 222035Z AUTO 20005KT 10SM CLR 28/16 A2986 RMK AO2
KL18 222015Z AUTO 23006KT 10SM CLR 27/16 A2987 RMK AO2
KL18 221955Z AUTO 22007KT 10SM CLR 27/16 A2988 RMK AO2
KL18 221935Z AUTO 22006KT 10SM CLR 27/16 A2988 RMK AO2
KL18 221915Z AUTO 19006KT 10SM CLR 26/16 A2989 RMK AO2
KL18 221855Z AUTO 20004KT 10SM CLR 25/15 A2989 RMK AO2
KL18 221835Z AUTO 19004KT 10SM CLR 25/15 A2990 RMK AO2
KL18 221815Z AUTO 22004KT 10SM CLR 24/16 A2991 RMK AO2
KL18 221755Z AUTO 28003KT 10SM CLR 23/15 A2991 RMK AO2
KL18 221735Z AUTO 00000KT 10SM CLR 22/15 A2991 RMK AO2
KL18 221715Z AUTO 00000KT 10SM CLR 21/15 A2991 RMK AO2
KL18 221655Z AUTO 24003KT 10SM CLR 20/15 A2992 RMK AO2
KL18 221635Z AUTO 00000KT 10SM SCT010 20/15 A2992 RMK AO2
KL18 221615Z AUTO 00000KT 7SM BKN008 18/15 A2993 RMK AO2
KL18 221555Z AUTO 18003KT 5SM BR OVC006 17/15 A2993 RMK AO2
KL18 221535Z AUTO 00000KT 5SM BR OVC006 17/15 A2993 RMK AO2
KL18 221515Z AUTO 00000KT 5SM BR OVC006 17/15 A2992 RMK AO2
KL18 221455Z AUTO 00000KT 5SM BR OVC006 16/15 A2992 RMK AO2
KL18 221435Z AUTO 00000KT 5SM BR OVC006 16/15 A2992 RMK AO2
KL18 221415Z AUTO 00000KT 5SM BR OVC006 16/15 A2991 RMK AO2
KL18 221355Z AUTO 36003KT 5SM BR OVC006 16/15 A2991 RMK AO2
KL18 221335Z AUTO 00000KT 7SM OVC006 16/15 A2991 RMK AO2
KL18 221315Z AUTO 00000KT 7SM OVC006 16/15 A2991 RMK AO2
KL18 221255Z AUTO 00000KT 7SM OVC006 16/15 A2991 RMK AO2
KL18 221235Z AUTO 00000KT 7SM OVC006 16/15 A2991 RMK AO2
KL18 221215Z AUTO 00000KT 7SM OVC006 16/15 A2991 RMK AO2
KL18 221155Z AUTO 00000KT 7SM OVC006 16/15 A2991 RMK AO2
KL18 221135Z AUTO 00000KT 7SM OVC006 16/15 A2991 RMK AO2
KL18 221115Z AUTO 00000KT 7SM OVC006 16/15 A2991 RMK AO2
KL18 221055Z AUTO 00000KT 7SM OVC006 16/15 A2991 RMK AO2
KL18 221035Z AUTO 00000KT 7SM OVC006 16/15 A2991 RMK AO2
KL18 221015Z AUTO 00000KT 7SM OVC006 16/15 A2991 RMK AO2
KL18 220955Z AUTO 00000KT 7SM OVC006 16/15 A2991 RMK AO2
KL18 220935Z AUTO 00000KT 7SM OVC006 16/15 A2992 RMK AO2
KL18 220915Z AUTO 00000KT 7SM OVC006 16/15 A2992 RMK AO2
KL18 220855Z AUTO 00000KT 7SM OVC006 16/15 A2993 RMK AO2
KL18 220835Z AUTO 00000KT 7SM OVC006 16/15 A2993 RMK AO2
KL18 220815Z AUTO 00000KT 7SM OVC006 16/15 A2993 RMK AO2
KL18 220755Z AUTO 00000KT 7SM OVC006 16/15 A2994 RMK AO2
KL18 220735Z AUTO 00000KT 7SM OVC006 16/15 A2994 RMK AO2
KL18 220715Z AUTO 32003KT 10SM OVC006 16/15 A2995 RMK AO2
KL18 220655Z AUTO 00000KT 10SM OVC006 16/15 A2995 RMK AO2
KL18 220635Z AUTO 00000KT 10SM OVC006 16/15 A2995 RMK AO2
KL18 220615Z AUTO 00000KT 10SM OVC008 16/15 A2995 RMK AO2
KL18 220555Z AUTO 00000KT 10SM OVC008 16/15 A2995 RMK AO2
KL18 220535Z AUTO 00000KT 10SM OVC008 16/15 A2996 RMK AO2
KL18 220515Z AUTO 00000KT 10SM OVC008 16/15 A2995 RMK AO2
KL18 220455Z AUTO 21003KT 10SM OVC008 16/15 A2994 RMK AO2
KL18 220435Z AUTO 21003KT 10SM OVC008 16/15 A2994 RMK AO2
KL18 220415Z AUTO 00000KT 10SM OVC008 16/15 A2993 RMK AO2
KL18 220355Z AUTO 00000KT 10SM OVC008 16/15 A2993 RMK AO2
KL18 220335Z AUTO 23004KT 10SM SCT008 16/15 A2993 RMK AO2
KL18 220315Z AUTO 22006KT 10SM CLR 17/15 A2992 RMK AO2
KL18 220255Z AUTO 21005KT 10SM CLR 17/15 A2993 RMK AO2
KL18 220235Z AUTO 22007KT 10SM CLR 18/15 A2992 RMK AO2
KL18 220215Z AUTO 22008KT 10SM CLR 19/15 A2992 RMK AO2
KL18 220155Z AUTO 24006KT 10SM CLR 20/15 A2992 RMK AO2
KL18 220135Z AUTO 22006KT 10SM CLR 21/15 A2991 RMK AO2
KL18 220115Z AUTO 21007G14KT 10SM CLR 21/15 A2991 RMK AO2
KL18 220055Z AUTO 22007KT 10SM CLR 22/15 A2991 RMK AO2
KL18 220035Z AUTO 19010G17KT 10SM CLR 22/15 A2991 RMK AO2
KL18 220015Z AUTO 21008KT 10SM CLR 23/15 A2991 RMK AO2
KL18 212355Z AUTO 22008G17KT 10SM CLR 23/15 A2992 RMK AO2
KL18 212335Z AUTO 22007G15KT 190V250 10SM CLR 23/15 A2992 RMK AO2
KL18 212315Z AUTO 23007KT 10SM CLR 23/15 A2992 RMK AO2
KL18 212255Z AUTO 23009KT 10SM CLR 24/15 A2992 RMK AO2
KL18 212235Z AUTO 23008KT 10SM CLR 24/15 A2993 RMK AO2
KL18 212215Z AUTO 22009G14KT 10SM CLR 25/15 A2993 RMK AO2
KL18 212155Z AUTO 23010G15KT 10SM CLR 26/15 A2993 RMK AO2
KL18 212135Z AUTO 22010G14KT 180V240 10SM CLR 26/15 A2993 RMK AO2
KL18 212115Z AUTO 21011G15KT 190V250 10SM CLR 26/15 A2993 RMK AO2
KL18 212055Z AUTO 23007KT 10SM CLR 27/15 A2994 RMK AO2
KL18 212035Z AUTO 21008G16KT 10SM CLR 27/16 A2994 RMK AO2
KL18 212015Z AUTO 20007KT 10SM CLR 27/16 A2995 RMK AO2
KL18 211955Z AUTO 23007KT 10SM CLR 26/16 A2995 RMK AO2
KL18 211935Z AUTO 21006KT 190V250 10SM CLR 25/16 A2996 RMK AO2
KL18 211915Z AUTO 22005KT 10SM CLR 24/15 A2996 RMK AO2
KL18 211855Z AUTO 23005KT 10SM CLR 24/16 A2996 RMK AO2
KL18 211835Z AUTO 00000KT 10SM CLR 22/15 A2996 RMK AO2
KL18 211815Z AUTO 00000KT 10SM SCT012 20/15 A2997 RMK AO2
KL18 211755Z AUTO 22004KT 10SM OVC012 19/15 A2997 RMK AO2
KL18 211735Z AUTO 27003KT 10SM OVC012 19/15 A2997 RMK AO2
KL18 211715Z AUTO 19003KT 10SM OVC010 19/15 A2998 RMK AO2
KL18 211655Z AUTO 23003KT 10SM OVC010 18/15 A2998 RMK AO2
KL18 211635Z AUTO 20003KT 10SM OVC010 18/15 A2997 RMK AO2
KL18 211615Z AUTO 00000KT 10SM OVC010 18/15 A2997 RMK AO2
KL18 211555Z AUTO 00000KT 10SM OVC008 17/15 A2997 RMK AO2
KL18 211535Z AUTO 00000KT 10SM OVC008 17/15 A2996 RMK AO2
KL18 211515Z AUTO 00000KT 10SM OVC008 17/15 A2996 RMK AO2
KL18 211455Z AUTO 00000KT 7SM OVC008 16/15 A2996 RMK AO2
KL18 211435Z AUTO 00000KT 7SM OVC008 16/15 A2996 RMK AO2
KL18 211415Z AUTO 00000KT 7SM OVC008 16/15 A2995 RMK AO2
KL18 211355Z AUTO 00000KT 7SM OVC008 16/15 A2995 RMK AO2
KL18 211335Z AUTO 00000KT 7SM OVC008 16/15 A2994 RMK AO2
KL18 211315Z AUTO 00000KT 7SM OVC008 16/15 A2994 RMK AO2
KL18 211255Z AUTO 00000KT 10SM OVC008 16/14 A2993 RMK AO2
KL18 211235Z AUTO 00000KT 10SM OVC008 16/14 A2993 RMK AO2
KL18 211215Z AUTO 00000KT 10SM OVC008 16/14 A2993 RMK AO2
KL18 211155Z AUTO 00000KT 10SM OVC008 16/14 A2993 RMK AO2
KL18 211135Z AUTO 00000KT 10SM OVC008 16/15 A2993 RMK AO2
KL18 211115Z AUTO 00000KT 10SM OVC008 16/14 A2993 RMK AO2
KL18 211055Z AUTO 00000KT 10SM OVC008 16/15 A2993 RMK AO2